createdAt,value
2022-12-08T00:02:03.596Z,3.00
2022-12-08T00:07:05.587Z,2.90
2022-12-08T00:12:12.819Z,2.90
2022-12-08T00:17:16.204Z,3.00
2022-12-08T00:22:17.948Z,3.00
2022-12-08T00:27:20.964Z,3.00
2022-12-08T00:32:22.757Z,3.10
2022-12-08T00:37:24.554Z,2.90
2022-12-08T00:42:27.616Z,3.00
2022-12-08T00:47:29.395Z,3.00
2022-12-08T00:52:31.137Z,3.10
2022-12-08T00:57:34.198Z,3.10
2022-12-08T01:02:35.927Z,3.10
2022-12-08T01:07:37.701Z,3.00
2022-12-08T01:12:44.537Z,2.90
2022-12-08T01:17:46.391Z,3.00
2022-12-08T01:22:48.149Z,3.00
2022-12-08T01:27:51.989Z,3.00
2022-12-08T01:32:53.791Z,3.00
2022-12-08T01:37:55.504Z,3.10
2022-12-08T01:42:58.583Z,3.10
2022-12-08T01:48:05.508Z,3.00
2022-12-08T01:53:10.846Z,3.00
2022-12-08T01:58:18.333Z,2.90
2022-12-08T02:03:25.247Z,2.90
2022-12-08T02:08:28.246Z,2.90
2022-12-08T02:13:31.448Z,3.00
2022-12-08T02:19:14.733Z,2.90
2022-12-08T02:24:19.766Z,2.90
2022-12-08T02:30:08.052Z,2.90
2022-12-08T02:35:14.360Z,2.80
2022-12-08T02:40:21.222Z,2.90
2022-12-08T02:45:26.690Z,2.80
2022-12-08T02:50:29.834Z,2.80
2022-12-08T02:55:40.178Z,2.70
2022-12-08T03:01:00.475Z,2.70
2022-12-08T03:06:15.327Z,2.70
2022-12-08T03:11:21.185Z,2.80
2022-12-08T03:16:26.114Z,2.90
2022-12-08T03:21:31.311Z,2.90
2022-12-08T03:26:38.674Z,2.90
2022-12-08T03:31:45.693Z,2.90
2022-12-08T03:36:48.772Z,2.90
2022-12-08T03:41:50.550Z,2.90
2022-12-08T03:46:52.234Z,2.90
2022-12-08T03:51:55.437Z,2.90
2022-12-08T03:56:57.141Z,2.90
2022-12-08T04:01:58.910Z,2.80
2022-12-08T04:07:02.120Z,2.90
2022-12-08T04:12:04.217Z,2.90
2022-12-08T04:17:05.965Z,2.80
2022-12-08T04:22:09.115Z,2.80
2022-12-08T04:27:10.872Z,2.80
2022-12-08T04:32:12.590Z,2.80
2022-12-08T04:37:15.710Z,2.80
2022-12-08T04:42:17.401Z,2.90
2022-12-08T04:47:19.198Z,2.90
2022-12-08T04:52:22.611Z,2.80
2022-12-08T04:57:24.367Z,2.80
2022-12-08T05:02:26.371Z,2.80
2022-12-08T05:07:29.482Z,2.80
2022-12-08T05:12:31.189Z,2.80
2022-12-08T05:17:32.874Z,2.80
2022-12-08T05:22:36.094Z,2.80
2022-12-08T05:27:37.876Z,2.70
2022-12-08T05:32:39.636Z,2.60
2022-12-08T05:37:42.871Z,2.60
2022-12-08T05:42:44.573Z,2.60
2022-12-08T05:47:46.325Z,2.50
2022-12-08T05:52:49.459Z,2.60
2022-12-08T05:57:51.378Z,2.60
2022-12-08T06:02:53.356Z,2.60
2022-12-08T06:07:56.542Z,2.50
2022-12-08T06:12:58.364Z,2.50
2022-12-08T06:18:00.132Z,2.40
2022-12-08T06:23:03.209Z,2.30
2022-12-08T06:28:05.640Z,2.30
2022-12-08T06:33:07.353Z,2.20
2022-12-08T06:38:10.455Z,2.20
2022-12-08T06:43:12.150Z,2.20
2022-12-08T06:48:13.840Z,2.20
2022-12-08T06:53:18.598Z,2.20
2022-12-08T06:58:20.380Z,2.10
2022-12-08T07:03:22.036Z,2.10
2022-12-08T07:08:25.186Z,2.10
2022-12-08T07:13:26.958Z,2.10
2022-12-08T07:18:28.703Z,2.10
2022-12-08T07:23:31.721Z,2.10
2022-12-08T07:28:34.249Z,2.10
2022-12-08T07:33:35.949Z,2.10
2022-12-08T07:38:39.455Z,2.20
2022-12-08T07:43:41.946Z,2.30
2022-12-08T07:48:43.849Z,2.30
2022-12-08T07:53:54.191Z,2.40
2022-12-08T07:58:56.659Z,2.40
2022-12-08T08:04:01.126Z,2.40
2022-12-08T08:09:04.536Z,2.50
2022-12-08T08:14:06.228Z,2.50
2022-12-08T08:19:07.900Z,2.60
2022-12-08T08:24:11.245Z,2.70
2022-12-08T08:29:12.888Z,2.70
2022-12-08T08:34:14.973Z,2.80
2022-12-08T08:39:18.051Z,2.80
2022-12-08T08:44:19.784Z,2.80
2022-12-08T08:49:21.538Z,2.80
2022-12-08T08:54:24.740Z,2.90
2022-12-08T08:59:27.134Z,3.00
2022-12-08T09:04:28.896Z,3.00
2022-12-08T09:09:31.996Z,2.90
2022-12-08T09:14:34.107Z,3.00
2022-12-08T09:19:35.891Z,3.00
2022-12-08T09:24:39.749Z,3.20
2022-12-08T09:29:41.733Z,3.10
2022-12-08T09:34:47.605Z,3.20
2022-12-08T09:39:53.667Z,3.20
2022-12-08T09:45:02.274Z,3.20
2022-12-08T09:50:11.115Z,3.20
2022-12-08T09:55:20.615Z,3.30
2022-12-08T10:00:22.609Z,3.40
2022-12-08T10:05:26.110Z,3.50
2022-12-08T10:10:37.994Z,3.60
2022-12-08T10:15:44.186Z,3.60
2022-12-08T10:20:47.618Z,3.70
2022-12-08T10:25:55.019Z,3.70
2022-12-08T10:30:56.856Z,3.90
2022-12-08T10:35:59.863Z,4.00
2022-12-08T10:41:06.969Z,4.20
2022-12-08T10:46:11.833Z,4.30
2022-12-08T10:51:23.700Z,4.40
2022-12-08T10:56:28.383Z,4.50
2022-12-08T11:01:36.360Z,4.50
2022-12-08T11:06:39.760Z,4.50
2022-12-08T11:11:48.886Z,4.40
2022-12-08T11:16:51.462Z,4.20
2022-12-08T11:21:53.753Z,4.10
2022-12-08T11:27:00.798Z,4.20
2022-12-08T11:32:07.384Z,4.30
2022-12-08T11:37:18.614Z,4.30
2022-12-08T11:42:26.396Z,4.40
2022-12-08T11:47:36.629Z,4.50
2022-12-08T11:52:47.776Z,4.50
2022-12-08T11:57:51.869Z,4.50
2022-12-08T12:03:01.225Z,4.70
2022-12-08T12:08:13.675Z,4.80
2022-12-08T12:13:41.615Z,4.70
2022-12-08T12:18:46.714Z,4.70
2022-12-08T12:23:53.624Z,4.70
2022-12-08T12:29:01.490Z,4.70
2022-12-08T12:34:10.755Z,4.90
2022-12-08T12:39:14.172Z,4.90
2022-12-08T12:44:36.067Z,5.00
2022-12-08T12:50:06.003Z,5.20
2022-12-08T12:55:26.774Z,5.50
2022-12-08T13:00:30.035Z,6.00
2022-12-08T13:05:35.568Z,6.40
2022-12-08T13:10:39.242Z,6.40
2022-12-08T13:15:49.100Z,6.10
2022-12-08T13:20:52.944Z,5.80
2022-12-08T13:26:14.532Z,5.60
2022-12-08T13:31:36.390Z,5.30
2022-12-08T13:36:44.032Z,5.10
2022-12-08T13:41:53.341Z,4.90
2022-12-08T13:57:49.546Z,4.40
2022-12-08T14:02:56.991Z,4.40
2022-12-08T14:07:58.829Z,4.30
2022-12-08T14:13:03.029Z,4.30
2022-12-08T14:18:21.075Z,4.40
2022-12-08T14:23:22.886Z,4.30
2022-12-08T14:28:25.187Z,4.30
2022-12-08T14:33:28.395Z,4.20
2022-12-08T14:38:30.745Z,4.20
2022-12-08T14:43:32.871Z,4.20
2022-12-08T14:48:42.152Z,4.20
2022-12-08T14:53:46.242Z,4.20
2022-12-08T14:58:50.708Z,4.20
2022-12-08T15:03:59.704Z,4.10
2022-12-08T15:09:15.501Z,4.20
2022-12-08T15:14:33.179Z,4.10
2022-12-08T15:19:36.362Z,4.00
2022-12-08T15:24:38.085Z,3.90
2022-12-08T15:29:39.877Z,3.80
2022-12-08T15:34:43.119Z,3.70
2022-12-08T15:39:45.059Z,3.60
2022-12-08T15:44:46.926Z,3.50
2022-12-08T15:49:51.369Z,3.40
2022-12-08T15:54:53.063Z,3.30
2022-12-08T15:59:54.824Z,3.20
2022-12-08T16:05:40.342Z,3.20
2022-12-08T16:10:24.619Z,3.10
2022-12-08T16:27:21.884Z,2.80
2022-12-08T16:31:48.329Z,2.80
2022-12-08T16:37:11.467Z,2.80
2022-12-08T16:42:14.055Z,2.80
2022-12-08T16:47:23.120Z,2.70
2022-12-08T16:52:26.344Z,2.70
2022-12-08T16:57:28.358Z,2.70
2022-12-08T17:02:30.081Z,2.70
2022-12-08T17:07:34.426Z,2.90
2022-12-08T17:12:36.297Z,2.80
2022-12-08T17:17:38.786Z,2.80
2022-12-08T17:22:45.321Z,2.80
2022-12-08T17:27:47.742Z,2.80
2022-12-08T17:32:49.481Z,2.90
2022-12-08T17:37:52.573Z,2.90
2022-12-08T17:42:54.339Z,2.90
2022-12-08T17:47:56.123Z,2.90
2022-12-08T17:52:59.232Z,2.90
2022-12-08T17:58:01.329Z,2.90
2022-12-08T18:03:03.242Z,2.90
2022-12-08T18:08:06.511Z,2.90
2022-12-08T18:13:08.718Z,2.90
2022-12-08T18:18:10.770Z,2.90
2022-12-08T18:23:16.767Z,2.80
2022-12-08T18:28:24.546Z,2.80
2022-12-08T18:33:29.803Z,2.80
2022-12-08T18:38:34.042Z,2.70
2022-12-08T18:43:38.875Z,2.70
2022-12-08T18:48:43.991Z,2.80
2022-12-08T18:54:02.475Z,2.70
2022-12-08T18:59:12.493Z,2.70
2022-12-08T19:04:31.830Z,2.60
2022-12-08T19:09:35.999Z,2.60
2022-12-08T19:14:38.084Z,2.60
2022-12-08T19:19:40.141Z,2.60
2022-12-08T19:24:43.486Z,2.70
2022-12-08T19:36:45.435Z,2.60
2022-12-08T19:41:48.750Z,2.60
2022-12-08T19:46:50.611Z,2.60
2022-12-08T19:51:52.626Z,2.60
2022-12-08T19:56:56.768Z,2.60
2022-12-08T20:01:58.899Z,2.60
2022-12-08T20:07:00.794Z,2.60
2022-12-08T20:12:04.467Z,2.60
2022-12-08T20:17:06.243Z,2.50
2022-12-08T20:22:08.123Z,2.50
2022-12-08T20:27:17.902Z,2.50
2022-12-08T20:32:21.797Z,2.50
2022-12-08T20:37:23.800Z,2.40
2022-12-08T20:42:27.216Z,2.50
2022-12-08T20:47:37.980Z,2.40
2022-12-08T20:52:39.911Z,2.40
2022-12-08T20:57:43.344Z,2.40
2022-12-08T21:02:49.787Z,2.50
2022-12-08T21:07:52.898Z,2.50
2022-12-08T21:12:56.380Z,2.40
2022-12-08T21:17:58.243Z,2.40
2022-12-08T21:23:00.995Z,2.30
2022-12-08T21:28:04.710Z,2.30
2022-12-08T21:33:13.411Z,2.30
2022-12-08T21:38:15.233Z,2.30
2022-12-08T21:43:18.485Z,2.20
2022-12-08T21:48:20.575Z,2.30
2022-12-08T21:53:25.440Z,2.30
2022-12-08T21:58:28.885Z,2.30
2022-12-08T22:03:30.863Z,2.30
2022-12-08T22:08:33.138Z,2.20
2022-12-08T22:13:38.032Z,2.20
2022-12-08T22:18:39.731Z,2.10
2022-12-08T22:23:41.695Z,2.10
2022-12-08T22:28:44.855Z,2.10
2022-12-08T22:33:47.197Z,2.10
2022-12-08T22:38:49.265Z,2.20
2022-12-08T22:43:52.375Z,2.20
2022-12-08T22:48:55.171Z,2.20
2022-12-08T22:53:56.975Z,2.10
2022-12-08T22:59:00.054Z,2.00
2022-12-08T23:04:02.193Z,1.90
2022-12-08T23:09:05.329Z,1.90
2022-12-08T23:14:08.486Z,1.90
2022-12-08T23:19:10.337Z,1.80
2022-12-08T23:24:12.148Z,1.90
2022-12-08T23:29:15.547Z,1.90
2022-12-08T23:34:17.470Z,1.90
2022-12-08T23:39:19.236Z,1.80
2022-12-08T23:44:22.569Z,1.80
2022-12-08T23:49:24.307Z,1.90
2022-12-08T23:54:26.202Z,1.80
2022-12-08T23:59:30.681Z,1.90
